createdAt,value
2023-04-09T00:01:13.503Z,49.45
2023-04-09T00:03:41.919Z,45.30
2023-04-09T00:06:10.219Z,45.53
2023-04-09T00:08:38.538Z,47.95
2023-04-09T00:11:06.876Z,46.17
2023-04-09T00:13:39.737Z,45.92
2023-04-09T00:16:10.323Z,40.78
2023-04-09T00:18:38.665Z,44.33
2023-04-09T00:21:08.530Z,49.53
2023-04-09T00:23:37.017Z,51.05
2023-04-09T00:26:05.590Z,48.75
2023-04-09T00:28:33.886Z,56.72
2023-04-09T00:31:02.400Z,61.08
2023-04-09T00:33:32.164Z,68.43
2023-04-09T00:36:00.804Z,73.55
2023-04-09T00:38:29.132Z,77.90
2023-04-09T00:40:57.372Z,74.35
2023-04-09T00:43:25.883Z,72.55
2023-04-09T00:45:54.235Z,74.65
2023-04-09T00:48:22.626Z,75.75
2023-04-09T00:50:52.336Z,74.25
2023-04-09T00:53:21.257Z,70.53
2023-04-09T00:55:49.593Z,66.45
2023-04-09T00:58:18.153Z,63.58
2023-04-09T01:00:46.418Z,63.58
2023-04-09T01:03:15.172Z,59.83
2023-04-09T01:05:54.896Z,63.85
2023-04-09T01:08:34.066Z,64.85
2023-04-09T01:11:15.465Z,61.78
2023-04-09T01:13:52.306Z,57.45
2023-04-09T01:16:23.146Z,60.70
2023-04-09T01:18:56.406Z,58.13
2023-04-09T01:21:32.051Z,55.97
2023-04-09T01:24:21.042Z,52.67
2023-04-09T01:27:00.070Z,56.15
2023-04-09T01:29:35.392Z,53.55
2023-04-09T01:32:04.679Z,55.08
2023-04-09T01:34:33.872Z,51.65
2023-04-09T01:37:05.142Z,52.28
2023-04-09T01:39:34.139Z,52.33
2023-04-09T01:42:03.914Z,51.80
2023-04-09T01:44:34.674Z,49.28
2023-04-09T01:47:03.521Z,52.17
2023-04-09T01:49:32.377Z,51.53
2023-04-09T01:52:01.216Z,51.65
2023-04-09T01:54:29.497Z,52.22
2023-04-09T01:56:59.678Z,46.60
2023-04-09T01:59:27.913Z,50.25
2023-04-09T02:02:02.711Z,49.22
2023-04-09T02:04:35.639Z,51.22
2023-04-09T02:07:12.951Z,48.78
2023-04-09T02:09:43.164Z,50.63
2023-04-09T02:12:16.066Z,51.58
2023-04-09T02:14:47.864Z,51.65
2023-04-09T02:17:17.636Z,49.00
2023-04-09T02:19:47.369Z,48.75
2023-04-09T02:22:16.966Z,48.67
2023-04-09T02:24:45.601Z,52.00
2023-04-09T02:27:13.945Z,48.58
2023-04-09T02:29:42.497Z,47.90
2023-04-09T02:32:10.793Z,48.10
2023-04-09T02:34:40.690Z,49.40
2023-04-09T02:37:09.086Z,51.45
2023-04-09T02:39:37.280Z,50.13
2023-04-09T02:42:07.795Z,49.15
2023-04-09T02:44:36.119Z,48.60
2023-04-09T02:47:04.505Z,45.53
2023-04-09T02:49:32.768Z,45.58
2023-04-09T02:52:02.457Z,43.42
2023-04-09T02:54:30.684Z,47.40
2023-04-09T02:56:58.949Z,45.30
2023-04-09T02:59:27.625Z,42.22
2023-04-09T03:01:55.909Z,48.20
2023-04-09T03:04:24.324Z,43.15
2023-04-09T03:06:52.994Z,46.75
2023-04-09T03:09:22.639Z,41.60
2023-04-09T03:11:50.924Z,46.72
2023-04-09T03:14:19.168Z,45.80
2023-04-09T03:16:47.406Z,47.42
2023-04-09T03:19:16.362Z,43.03
2023-04-09T03:21:45.048Z,46.72
2023-04-09T03:24:13.511Z,42.72
2023-04-09T03:26:43.355Z,43.50
2023-04-09T03:29:11.662Z,46.70
2023-04-09T03:31:39.980Z,44.03
2023-04-09T03:34:08.344Z,46.85
2023-04-09T03:36:36.680Z,47.65
2023-04-09T03:39:05.142Z,44.03
2023-04-09T03:41:33.416Z,43.25
2023-04-09T03:44:03.359Z,42.42
2023-04-09T03:46:31.675Z,45.30
2023-04-09T03:48:59.895Z,44.60
2023-04-09T03:51:28.243Z,43.47
2023-04-09T03:53:56.499Z,47.65
2023-04-09T03:56:24.780Z,43.25
2023-04-09T03:58:53.192Z,48.22
2023-04-09T04:01:22.951Z,47.13
2023-04-09T04:03:51.276Z,47.13
2023-04-09T04:06:19.525Z,43.13
2023-04-09T04:08:47.868Z,48.85
2023-04-09T04:11:16.180Z,47.63
2023-04-09T04:13:44.459Z,44.60
2023-04-09T04:16:12.923Z,46.22
2023-04-09T04:18:42.614Z,49.20
2023-04-09T04:21:15.806Z,48.30
2023-04-09T04:23:44.529Z,47.22
2023-04-09T04:26:13.499Z,45.42
2023-04-09T04:28:42.651Z,42.08
2023-04-09T04:31:12.150Z,44.50
2023-04-09T04:33:43.711Z,45.83
2023-04-09T04:36:14.306Z,47.33
2023-04-09T04:38:43.044Z,46.83
2023-04-09T04:41:13.248Z,46.83
2023-04-09T04:43:42.428Z,49.35
2023-04-09T04:46:10.680Z,45.55
2023-04-09T04:48:38.963Z,42.65
2023-04-09T04:51:08.642Z,45.75
2023-04-09T04:53:36.958Z,45.83
2023-04-09T04:56:05.939Z,43.60
2023-04-09T04:58:34.183Z,49.47
2023-04-09T05:01:02.703Z,48.70
2023-04-09T05:03:31.059Z,48.70
2023-04-09T05:05:59.389Z,51.45
2023-04-09T05:08:29.015Z,46.38
2023-04-09T05:10:57.290Z,45.55
2023-04-09T05:13:25.983Z,43.85
2023-04-09T05:15:54.396Z,49.95
2023-04-09T05:18:22.703Z,48.15
2023-04-09T05:20:51.070Z,44.78
2023-04-09T05:23:19.372Z,46.03
2023-04-09T05:25:50.023Z,51.78
2023-04-09T05:28:18.408Z,48.47
2023-04-09T05:30:48.257Z,47.70
2023-04-09T05:33:16.559Z,50.15
2023-04-09T05:35:44.848Z,47.35
2023-04-09T05:38:14.053Z,48.30
2023-04-09T05:40:44.517Z,50.20
2023-04-09T05:43:14.628Z,53.00
2023-04-09T05:45:43.449Z,48.83
2023-04-09T05:48:12.317Z,46.83
2023-04-09T05:50:53.298Z,47.75
2023-04-09T05:53:23.085Z,48.30
2023-04-09T05:55:51.400Z,49.88
2023-04-09T05:58:22.159Z,50.60
2023-04-09T06:00:51.672Z,50.70
2023-04-09T06:03:20.687Z,49.53
2023-04-09T06:05:49.529Z,51.10
2023-04-09T06:08:17.976Z,51.17
2023-04-09T06:10:47.127Z,53.85
2023-04-09T06:13:15.681Z,50.92
2023-04-09T06:15:45.575Z,50.22
2023-04-09T06:18:13.961Z,52.85
2023-04-09T06:20:42.538Z,53.28
2023-04-09T06:23:11.522Z,54.90
2023-04-09T06:25:39.783Z,55.00
2023-04-09T06:28:08.177Z,56.35
2023-04-09T06:30:37.053Z,56.90
2023-04-09T06:33:06.758Z,51.13
2023-04-09T06:35:35.103Z,51.85
2023-04-09T06:38:03.517Z,57.38
2023-04-09T06:40:32.075Z,57.05
2023-04-09T06:43:00.903Z,58.08
2023-04-09T06:45:29.413Z,61.75
2023-04-09T06:47:57.817Z,60.70
2023-04-09T06:50:27.532Z,63.42
2023-04-09T06:52:56.272Z,64.63
2023-04-09T06:55:24.741Z,65.55
2023-04-09T06:57:53.066Z,64.25
2023-04-09T07:00:23.025Z,64.80
2023-04-09T07:02:51.899Z,62.67
2023-04-09T07:05:20.454Z,64.25
2023-04-09T07:07:50.129Z,66.82
2023-04-09T07:10:18.615Z,69.47
2023-04-09T07:12:46.880Z,68.57
2023-04-09T07:15:15.375Z,67.78
2023-04-09T07:17:44.762Z,74.03
2023-04-09T07:20:13.911Z,70.32
2023-04-09T07:22:42.471Z,72.75
2023-04-09T07:25:12.231Z,71.65
2023-04-09T07:27:40.494Z,76.82
2023-04-09T07:30:10.711Z,74.88
2023-04-09T07:32:39.375Z,74.32
2023-04-09T07:35:11.812Z,77.55
2023-04-09T07:37:40.418Z,77.15
2023-04-09T07:40:12.173Z,74.90
2023-04-09T07:42:40.642Z,76.22
2023-04-09T07:45:10.370Z,82.75
2023-04-09T07:47:40.963Z,77.55
2023-04-09T07:50:11.373Z,79.43
2023-04-09T07:52:39.802Z,71.13
2023-04-09T07:55:08.723Z,78.72
2023-04-09T07:57:38.470Z,76.53
2023-04-09T08:00:08.549Z,76.07
2023-04-09T08:02:36.954Z,85.85
2023-04-09T08:05:06.463Z,80.70
2023-04-09T08:07:34.842Z,81.88
2023-04-09T08:10:03.237Z,83.93
2023-04-09T08:12:31.465Z,78.32
2023-04-09T08:15:03.616Z,84.57
2023-04-09T08:17:32.027Z,84.90
2023-04-09T08:20:00.403Z,86.50
2023-04-09T08:22:28.675Z,82.65
2023-04-09T08:24:59.785Z,84.88
2023-04-09T08:27:29.838Z,85.13
2023-04-09T08:29:58.107Z,86.50
2023-04-09T08:32:27.994Z,82.70
2023-04-09T08:34:56.326Z,84.78
2023-04-09T08:37:24.621Z,80.28
2023-04-09T08:39:53.013Z,86.20
2023-04-09T08:42:22.540Z,79.80
2023-04-09T08:44:51.632Z,81.20
2023-04-09T08:47:21.865Z,81.00
2023-04-09T08:49:51.716Z,83.97
2023-04-09T08:52:22.151Z,84.93
2023-04-09T08:54:52.646Z,81.82
2023-04-09T08:57:21.157Z,87.13
2023-04-09T08:59:49.421Z,82.25
2023-04-09T09:02:17.706Z,81.75
2023-04-09T09:04:47.750Z,79.50
2023-04-09T09:07:18.310Z,79.97
2023-04-09T09:09:55.001Z,77.63
2023-04-09T09:12:41.128Z,65.68
2023-04-09T09:15:29.104Z,65.32
2023-04-09T09:18:01.003Z,58.20
2023-04-09T09:20:30.076Z,58.50
2023-04-09T09:23:01.702Z,58.83
2023-04-09T09:25:30.820Z,59.53
2023-04-09T09:28:09.749Z,55.67
2023-04-09T09:30:39.819Z,60.03
2023-04-09T09:33:10.732Z,56.85
2023-04-09T09:35:54.061Z,57.20
2023-04-09T09:38:24.078Z,56.72
2023-04-09T09:40:52.680Z,59.50
2023-04-09T09:43:21.591Z,57.58
2023-04-09T09:45:50.728Z,55.08
2023-04-09T09:48:19.090Z,58.22
2023-04-09T09:50:49.650Z,52.95
2023-04-09T09:53:24.803Z,56.47
2023-04-09T09:55:58.133Z,54.88
2023-04-09T09:58:34.046Z,54.58
2023-04-09T10:01:04.013Z,54.30
2023-04-09T10:03:37.622Z,53.72
2023-04-09T10:06:06.710Z,54.88
2023-04-09T10:08:38.484Z,53.67
2023-04-09T10:11:08.977Z,54.63
2023-04-09T10:13:40.894Z,55.70
2023-04-09T10:16:10.160Z,52.63
2023-04-09T10:18:38.668Z,54.67
2023-04-09T10:21:19.072Z,55.60
2023-04-09T10:23:51.907Z,53.28
2023-04-09T10:26:21.009Z,56.17
2023-04-09T10:29:08.176Z,53.88
2023-04-09T10:31:53.117Z,56.28
2023-04-09T10:34:23.750Z,51.10
2023-04-09T10:36:54.912Z,54.17
2023-04-09T10:39:29.726Z,49.53
2023-04-09T10:41:59.623Z,54.40
2023-04-09T10:44:31.831Z,51.88
2023-04-09T10:47:00.393Z,49.53
2023-04-09T10:49:29.281Z,52.83
2023-04-09T10:52:04.806Z,52.58
2023-04-09T10:54:46.680Z,52.45
2023-04-09T10:57:20.745Z,52.38
2023-04-09T10:59:51.543Z,46.90
2023-04-09T11:03:07.937Z,48.28
2023-04-09T11:05:38.795Z,49.75
2023-04-09T11:08:10.768Z,47.20
2023-04-09T11:10:42.240Z,49.10
2023-04-09T11:13:13.406Z,49.60
2023-04-09T11:15:42.252Z,48.08
2023-04-09T11:18:12.088Z,45.13
2023-04-09T11:20:41.396Z,47.53
2023-04-09T11:23:09.745Z,44.58
2023-04-09T11:25:39.372Z,45.38
2023-04-09T11:28:08.899Z,43.00
2023-04-09T11:30:38.618Z,39.47
2023-04-09T11:33:08.703Z,40.53
2023-04-09T11:35:37.798Z,43.38
2023-04-09T11:38:10.465Z,38.08
2023-04-09T11:40:48.082Z,40.70
2023-04-09T11:43:17.876Z,40.00
2023-04-09T11:45:48.732Z,36.35
2023-04-09T11:48:19.214Z,37.00
2023-04-09T11:50:48.247Z,36.75
2023-04-09T11:53:22.792Z,36.47
2023-04-09T11:55:54.555Z,38.65
2023-04-09T11:58:24.843Z,36.40
2023-04-09T12:00:56.176Z,37.10
2023-04-09T12:03:32.981Z,37.55
2023-04-09T12:06:03.820Z,35.13
2023-04-09T12:08:34.576Z,39.25
2023-04-09T12:11:11.796Z,35.60
2023-04-09T12:13:43.373Z,36.15
2023-04-09T12:16:12.634Z,37.33
2023-04-09T12:18:42.471Z,35.42
2023-04-09T12:21:10.816Z,33.65
2023-04-09T12:23:39.137Z,38.17
2023-04-09T12:26:07.704Z,32.55
2023-04-09T12:28:37.297Z,35.65
2023-04-09T12:31:06.063Z,29.30
2023-04-09T12:33:34.344Z,31.58
2023-04-09T12:36:02.736Z,35.00
2023-04-09T12:38:31.191Z,35.83
2023-04-09T12:40:59.670Z,32.92
2023-04-09T12:43:28.031Z,35.10
2023-04-09T12:45:58.041Z,29.65
2023-04-09T12:48:26.817Z,30.33
2023-04-09T12:50:55.163Z,30.30
2023-04-09T12:53:23.593Z,31.95
2023-04-09T12:55:52.246Z,30.58
2023-04-09T12:58:20.544Z,30.73
2023-04-09T13:00:48.832Z,29.98
2023-04-09T13:03:18.733Z,28.13
2023-04-09T13:05:47.302Z,27.00
2023-04-09T13:08:16.285Z,28.42
2023-04-09T13:10:44.842Z,31.17
2023-04-09T13:13:13.118Z,27.75
2023-04-09T13:15:43.286Z,26.02
2023-04-09T13:18:11.841Z,28.65
2023-04-09T13:20:41.805Z,24.75
2023-04-09T13:23:10.072Z,27.38
2023-04-09T13:25:38.318Z,24.88
2023-04-09T13:28:06.724Z,26.85
2023-04-09T13:30:35.136Z,24.58
2023-04-09T13:33:03.753Z,28.95
2023-04-09T13:35:32.424Z,24.75
2023-04-09T13:38:02.253Z,24.60
2023-04-09T13:40:30.585Z,23.52
2023-04-09T13:42:58.895Z,22.70
2023-04-09T13:45:27.191Z,21.60
2023-04-09T13:47:55.570Z,25.20
2023-04-09T13:50:24.123Z,23.17
2023-04-09T13:52:52.917Z,23.05
2023-04-09T13:55:23.374Z,21.80
2023-04-09T13:57:52.145Z,24.90
2023-04-09T14:00:21.169Z,23.83
2023-04-09T14:02:49.628Z,23.38
2023-04-09T14:05:18.342Z,21.45
2023-04-09T14:07:47.086Z,21.65
2023-04-09T14:10:15.949Z,21.25
2023-04-09T14:12:45.583Z,18.55
2023-04-09T14:15:13.908Z,19.65
2023-04-09T14:17:44.452Z,22.60
2023-04-09T14:20:13.174Z,20.98
2023-04-09T14:22:42.991Z,16.67
2023-04-09T14:25:11.540Z,19.27
2023-04-09T14:27:39.829Z,17.10
2023-04-09T14:30:11.862Z,16.35
2023-04-09T14:32:40.503Z,18.23
2023-04-09T14:35:09.981Z,20.10
2023-04-09T14:37:40.884Z,18.63
2023-04-09T14:40:10.553Z,17.98
2023-04-09T14:42:38.885Z,16.88
2023-04-09T14:45:09.636Z,15.07
2023-04-09T14:47:37.923Z,16.48
2023-04-09T14:50:07.052Z,18.42
2023-04-09T14:52:35.365Z,20.20
2023-04-09T14:55:04.192Z,17.63
2023-04-09T14:57:32.679Z,16.42
2023-04-09T15:00:00.960Z,19.00
2023-04-09T15:02:30.768Z,16.60
2023-04-09T15:04:59.216Z,18.70
2023-04-09T15:07:27.724Z,18.08
2023-04-09T15:09:59.660Z,18.63
2023-04-09T15:12:28.472Z,19.83
2023-04-09T15:14:57.440Z,16.42
2023-04-09T15:17:26.271Z,16.98
2023-04-09T15:19:56.416Z,17.08
2023-04-09T15:22:24.812Z,15.88
2023-04-09T15:24:54.159Z,17.13
2023-04-09T15:27:22.876Z,17.98
2023-04-09T15:29:51.895Z,18.27
2023-04-09T15:32:20.751Z,16.67
2023-04-09T15:34:49.582Z,16.40
2023-04-09T15:37:19.263Z,16.85
2023-04-09T15:39:47.589Z,16.73
2023-04-09T15:42:20.248Z,16.05
2023-04-09T15:44:48.566Z,21.38
2023-04-09T15:47:16.984Z,16.30
2023-04-09T15:49:45.405Z,15.90
2023-04-09T15:52:14.060Z,16.30
2023-04-09T15:54:43.900Z,16.88
2023-04-09T15:57:12.166Z,16.52
2023-04-09T15:59:40.646Z,16.08
2023-04-09T16:02:08.977Z,15.82
2023-04-09T16:04:37.335Z,16.92
2023-04-09T16:07:05.726Z,14.88
2023-04-09T16:09:34.033Z,17.38
2023-04-09T16:12:03.855Z,17.25
2023-04-09T16:14:32.246Z,16.85
2023-04-09T16:17:01.048Z,17.95
2023-04-09T16:19:29.386Z,19.05
2023-04-09T16:21:57.715Z,16.80
2023-04-09T16:24:27.123Z,17.52
2023-04-09T16:26:56.530Z,18.40
2023-04-09T16:29:27.891Z,19.27
2023-04-09T16:31:57.042Z,17.10
2023-04-09T16:34:25.659Z,17.08
2023-04-09T16:36:53.951Z,17.55
2023-04-09T16:39:22.182Z,20.42
2023-04-09T16:41:52.220Z,16.35
2023-04-09T16:44:20.542Z,15.68
2023-04-09T16:46:50.580Z,15.38
2023-04-09T16:49:18.913Z,14.63
2023-04-09T16:51:47.240Z,13.68
2023-04-09T16:54:15.537Z,14.77
2023-04-09T16:56:44.139Z,14.23
2023-04-09T16:59:13.533Z,16.95
2023-04-09T17:01:42.083Z,16.98
2023-04-09T17:04:12.002Z,14.93
2023-04-09T17:06:40.344Z,13.27
2023-04-09T17:09:08.699Z,15.70
2023-04-09T17:11:38.035Z,12.18
2023-04-09T17:14:06.890Z,14.80
2023-04-09T17:16:36.251Z,18.58
2023-04-09T17:19:04.637Z,17.25
2023-04-09T17:21:34.336Z,16.65
2023-04-09T17:24:02.959Z,17.23
2023-04-09T17:26:31.239Z,17.48
2023-04-09T17:28:59.498Z,16.88
2023-04-09T17:31:27.895Z,16.52
2023-04-09T17:33:56.266Z,17.13
2023-04-09T17:36:24.655Z,16.52
2023-04-09T17:38:56.605Z,16.75
2023-04-09T17:41:25.219Z,16.88
2023-04-09T17:43:53.553Z,16.42
2023-04-09T17:46:22.085Z,15.60
2023-04-09T17:48:50.812Z,19.92
2023-04-09T17:51:21.018Z,18.42
2023-04-09T17:53:49.286Z,17.25
2023-04-09T17:56:19.471Z,15.95
2023-04-09T17:58:47.789Z,15.93
2023-04-09T18:01:16.752Z,16.92
2023-04-09T18:03:46.360Z,16.48
2023-04-09T18:06:16.819Z,18.13
2023-04-09T18:08:45.190Z,18.33
2023-04-09T18:11:15.560Z,17.98
2023-04-09T18:13:45.485Z,17.77
2023-04-09T18:16:14.009Z,18.25
2023-04-09T18:18:42.752Z,17.25
2023-04-09T18:21:11.195Z,17.45
2023-04-09T18:23:40.408Z,17.00
2023-04-09T18:26:08.764Z,15.25
2023-04-09T18:28:37.038Z,15.88
2023-04-09T18:31:07.092Z,16.88
2023-04-09T18:33:35.473Z,16.48
2023-04-09T18:36:04.074Z,17.50
2023-04-09T18:38:32.517Z,18.02
2023-04-09T18:41:01.632Z,16.55
2023-04-09T18:43:30.157Z,15.07
2023-04-09T18:45:58.662Z,17.20
2023-04-09T18:48:28.367Z,16.65
2023-04-09T18:50:56.619Z,15.65
2023-04-09T18:53:25.122Z,16.20
2023-04-09T18:55:53.407Z,16.17
2023-04-09T18:58:21.661Z,16.75
2023-04-09T19:00:51.738Z,15.95
2023-04-09T19:03:20.262Z,14.77
2023-04-09T19:05:50.073Z,16.50
2023-04-09T19:08:18.346Z,16.35
2023-04-09T19:10:47.587Z,14.82
2023-04-09T19:13:16.898Z,13.88
2023-04-09T19:15:45.700Z,15.35
2023-04-09T19:18:14.012Z,20.48
2023-04-09T19:20:42.276Z,17.60
2023-04-09T19:23:11.934Z,16.55
2023-04-09T19:25:40.381Z,17.95
2023-04-09T19:28:08.659Z,15.77
2023-04-09T19:30:36.957Z,16.58
2023-04-09T19:33:05.638Z,15.95
2023-04-09T19:35:35.860Z,14.07
2023-04-09T19:38:05.123Z,15.57
2023-04-09T19:40:35.063Z,15.75
2023-04-09T19:43:03.437Z,14.00
2023-04-09T19:45:31.754Z,14.20
2023-04-09T19:48:00.095Z,15.38
2023-04-09T19:50:28.754Z,16.25
2023-04-09T19:52:57.337Z,15.88
2023-04-09T19:55:26.045Z,14.40
2023-04-09T19:57:55.702Z,13.60
2023-04-09T20:00:23.963Z,18.70
2023-04-09T20:02:52.419Z,16.55
2023-04-09T20:05:21.384Z,15.68
2023-04-09T20:07:50.045Z,15.70
2023-04-09T20:10:19.007Z,16.50
2023-04-09T20:12:49.960Z,14.75
2023-04-09T20:15:20.955Z,15.95
2023-04-09T20:17:49.432Z,14.57
2023-04-09T20:20:20.100Z,15.60
2023-04-09T20:22:56.417Z,16.80
2023-04-09T20:25:26.155Z,16.40
2023-04-09T20:27:55.341Z,15.63
2023-04-09T20:30:24.982Z,15.68
2023-04-09T20:32:53.325Z,20.25
2023-04-09T20:35:21.699Z,17.48
2023-04-09T20:37:50.196Z,15.95
2023-04-09T20:40:18.645Z,14.82
2023-04-09T20:42:46.938Z,15.30
2023-04-09T20:45:15.748Z,15.75
2023-04-09T20:47:45.418Z,17.63
2023-04-09T20:50:13.853Z,15.55
2023-04-09T20:52:42.147Z,16.10
2023-04-09T20:55:11.318Z,15.98
2023-04-09T20:57:39.542Z,15.35
2023-04-09T21:00:10.240Z,16.40
2023-04-09T21:02:40.522Z,15.73
2023-04-09T21:05:21.823Z,16.70
2023-04-09T21:07:51.708Z,15.82
2023-04-09T21:10:19.972Z,15.73
2023-04-09T21:12:48.334Z,16.85
2023-04-09T21:15:16.940Z,18.45
2023-04-09T21:17:45.623Z,18.30
2023-04-09T21:20:16.745Z,16.70
2023-04-09T21:22:45.055Z,19.35
2023-04-09T21:25:15.262Z,17.73
2023-04-09T21:27:43.903Z,16.25
2023-04-09T21:30:13.306Z,14.27
2023-04-09T21:32:42.287Z,15.48
2023-04-09T21:35:10.938Z,15.73
2023-04-09T21:37:40.799Z,18.70
2023-04-09T21:40:10.424Z,16.33
2023-04-09T21:42:38.711Z,18.23
2023-04-09T21:45:08.152Z,16.83
2023-04-09T21:47:36.494Z,19.67
2023-04-09T21:50:05.429Z,17.17
2023-04-09T21:52:34.266Z,18.52
2023-04-09T21:55:04.430Z,17.30
2023-04-09T21:57:32.743Z,16.15
2023-04-09T22:00:01.148Z,18.48
2023-04-09T22:02:29.614Z,19.60
2023-04-09T22:05:01.188Z,18.10
2023-04-09T22:07:29.743Z,17.75
2023-04-09T22:09:59.455Z,17.33
2023-04-09T22:12:29.098Z,18.55
2023-04-09T22:14:57.392Z,16.23
2023-04-09T22:17:25.708Z,17.90
2023-04-09T22:19:54.071Z,17.83
2023-04-09T22:22:22.576Z,18.23
2023-04-09T22:24:50.932Z,15.80
2023-04-09T22:27:19.212Z,19.63
2023-04-09T22:29:48.876Z,15.80
2023-04-09T22:32:17.438Z,17.17
2023-04-09T22:34:45.782Z,18.50
2023-04-09T22:37:14.022Z,16.20
2023-04-09T22:39:42.501Z,19.63
2023-04-09T22:42:11.514Z,19.02
2023-04-09T22:44:41.795Z,18.25
2023-04-09T22:47:11.495Z,17.75
2023-04-09T22:49:39.761Z,16.92
2023-04-09T22:52:08.442Z,18.60
2023-04-09T22:54:38.218Z,18.55
2023-04-09T22:57:06.799Z,17.67
2023-04-09T23:02:07.446Z,18.70
2023-04-09T23:04:37.588Z,17.17
2023-04-09T23:07:06.389Z,17.00
2023-04-09T23:09:34.865Z,19.23
2023-04-09T23:12:03.316Z,18.67
2023-04-09T23:14:31.627Z,19.95
2023-04-09T23:16:59.889Z,21.02
2023-04-09T23:19:28.172Z,19.45
2023-04-09T23:21:57.763Z,19.02
2023-04-09T23:24:26.053Z,17.35
2023-04-09T23:26:54.374Z,17.95
2023-04-09T23:29:22.647Z,18.73
2023-04-09T23:31:51.424Z,19.00
2023-04-09T23:34:19.716Z,17.20
2023-04-09T23:36:48.001Z,19.30
2023-04-09T23:39:17.678Z,17.15
2023-04-09T23:41:45.943Z,17.13
2023-04-09T23:44:14.204Z,18.83
2023-04-09T23:46:42.856Z,18.45
2023-04-09T23:49:11.163Z,17.85
2023-04-09T23:51:39.399Z,19.13
2023-04-09T23:54:07.616Z,19.15
2023-04-09T23:56:37.550Z,24.90
2023-04-09T23:59:05.820Z,16.38
